Time;durP1;ratioP1;P1;durP2;ratioP2;P2;SDS_P1;SDS_P2;PMS_P1;PMS_P2;Temp;Humidity;BMP_temperature;BMP_pressure;BME280_temperature;BME280_humidity;BME280_pressure;Samples;Min_cycle;Max_cycle;Signal;HPM_P1;HPM_P2
2022/09/12 00:01:23;;;;;;;19.02;13.05;;;12.80;99.90;;;;;;5064487;28;20029;-79
2022/09/12 00:03:57;;;;;;;16.50;11.70;;;12.60;99.90;;;;;;5061407;28;20010;-79
2022/09/12 00:06:31;;;;;;;15.80;11.77;;;12.40;99.90;;;;;;5072039;28;20036;-79
2022/09/12 00:08:58;;;;;;;15.38;11.95;;;12.20;99.90;;;;;;5060312;28;20063;-79
2022/09/12 00:11:25;;;;;;;15.73;12.55;;;12.10;99.90;;;;;;5068692;28;20033;-79
2022/09/12 00:13:54;;;;;;;18.90;13.80;;;12.00;99.90;;;;;;5071472;28;20016;-79
2022/09/12 00:16:22;;;;;;;18.20;12.20;;;12.00;99.90;;;;;;5071500;28;20192;-79
2022/09/12 00:18:48;;;;;;;18.98;13.75;;;12.30;99.90;;;;;;5064566;28;20023;-79
2022/09/12 00:21:15;;;;;;;22.33;15.07;;;12.20;99.90;;;;;;5067057;28;20043;-80
2022/09/12 00:23:41;;;;;;;21.48;14.32;;;12.30;99.90;;;;;;5072677;28;20024;-79
2022/09/12 00:26:07;;;;;;;21.17;15.45;;;12.10;99.90;;;;;;5072819;28;20029;-79
2022/09/12 00:28:35;;;;;;;21.10;14.88;;;12.20;99.90;;;;;;5066319;28;20032;-79
2022/09/12 00:31:05;;;;;;;20.17;13.52;;;12.10;99.90;;;;;;5067713;28;20657;-79
2022/09/12 00:33:33;;;;;;;19.67;14.48;;;12.10;99.90;;;;;;5075512;23;20077;-77
2022/09/12 00:35:58;;;;;;;20.77;15.27;;;12.10;99.90;;;;;;5022189;28;20026;-80
2022/09/12 00:38:26;;;;;;;22.67;15.70;;;12.20;99.90;;;;;;5031948;28;20052;-79
2022/09/12 00:40:52;;;;;;;23.73;15.57;;;12.20;99.90;;;;;;5022828;28;20026;-79
2022/09/12 00:43:30;;;;;;;24.60;15.95;;;12.20;99.90;;;;;;5031174;28;20033;-78
2022/09/12 00:46:03;;;;;;;25.77;15.73;;;12.20;99.90;;;;;;5032312;28;20030;-80
2022/09/12 00:48:41;;;;;;;27.33;16.00;;;12.20;99.90;;;;;;5024025;28;20061;-78
2022/09/12 00:51:07;;;;;;;25.92;16.27;;;12.20;99.90;;;;;;5030496;28;20061;-79
2022/09/12 00:53:33;;;;;;;21.85;15.02;;;12.20;99.90;;;;;;5022276;28;20077;-78
2022/09/12 00:55:59;;;;;;;24.92;15.98;;;12.30;99.90;;;;;;5030978;28;20026;-78
2022/09/12 00:58:28;;;;;;;24.25;16.02;;;12.30;99.90;;;;;;5031174;28;20022;-78
2022/09/12 01:00:56;;;;;;;24.60;16.38;;;12.30;99.90;;;;;;5032579;28;20022;-78
2022/09/12 01:03:22;;;;;;;24.42;15.63;;;12.30;99.90;;;;;;5037291;28;20034;-80
2022/09/12 01:06:06;;;;;;;26.20;15.48;;;12.30;99.90;;;;;;5036710;28;20022;-78
2022/09/12 01:08:36;;;;;;;23.02;14.50;;;12.30;99.90;;;;;;5032145;28;20030;-78
2022/09/12 01:11:02;;;;;;;24.08;15.93;;;12.30;99.90;;;;;;5031598;28;20033;-79
2022/09/12 01:13:28;;;;;;;23.90;15.05;;;12.30;99.90;;;;;;5023548;28;20049;-79
2022/09/12 01:15:54;;;;;;;26.00;16.30;;;12.30;99.90;;;;;;5025802;28;20077;-80
2022/09/12 01:18:44;;;;;;;25.67;15.52;;;12.30;99.90;;;;;;5034645;28;20070;-79
2022/09/12 01:21:34;;;;;;;22.90;16.50;;;12.40;99.90;;;;;;5029633;28;20025;-79
2022/09/12 01:24:48;;;;;;;23.45;15.50;;;12.30;99.90;;;;;;5035057;28;20017;-80
2022/09/12 01:27:43;;;;;;;26.63;15.55;;;12.30;99.90;;;;;;5029466;28;20034;-80
2022/09/12 01:30:30;;;;;;;25.58;15.73;;;12.30;99.90;;;;;;5025078;28;20053;-78
2022/09/12 01:33:03;;;;;;;24.17;15.80;;;12.30;99.90;;;;;;5019479;28;20022;-79
2022/09/12 01:35:57;;;;;;;24.15;15.43;;;12.30;99.90;;;;;;5027181;28;20034;-80
2022/09/12 01:38:33;;;;;;;26.50;16.23;;;12.30;99.90;;;;;;5022721;28;20045;-79
2022/09/12 01:41:30;;;;;;;25.67;16.70;;;12.30;99.90;;;;;;5027935;28;20026;-80
2022/09/12 01:44:24;;;;;;;26.40;16.75;;;12.40;99.90;;;;;;5012548;28;20049;-79
2022/09/12 01:47:07;;;;;;;26.92;16.67;;;12.30;99.90;;;;;;5028240;28;20026;-79
2022/09/12 01:49:57;;;;;;;27.17;16.67;;;12.30;99.90;;;;;;5023065;28;20073;-79
2022/09/12 01:52:42;;;;;;;;;;;12.30;99.90;;;;;;5024591;28;20033;-80
2022/09/12 01:55:11;;;;;;;22.48;15.10;;;12.30;99.90;;;;;;5028748;28;19924;-80
2022/09/12 01:57:43;;;;;;;23.58;15.73;;;12.30;99.90;;;;;;5032019;28;20658;-79
2022/09/12 02:00:10;;;;;;;23.13;15.93;;;12.40;99.90;;;;;;5029552;28;20029;-80
2022/09/12 02:02:54;;;;;;;26.05;16.77;;;12.30;99.90;;;;;;5033128;28;20044;-80
2022/09/12 02:05:32;;;;;;;23.65;15.35;;;12.30;99.90;;;;;;5029393;28;20053;-79
2022/09/12 02:08:08;;;;;;;25.05;15.80;;;12.30;99.90;;;;;;5042149;28;20029;-80
2022/09/12 02:10:42;;;;;;;26.30;15.63;;;12.30;99.90;;;;;;5027146;28;20034;-79
2022/09/12 02:13:23;;;;;;;24.20;16.00;;;12.30;99.90;;;;;;5015885;28;20042;-79
2022/09/12 02:15:53;;;;;;;26.63;16.83;;;12.20;99.90;;;;;;5031554;28;20032;-80
2022/09/12 02:18:20;;;;;;;32.00;17.75;;;12.40;99.90;;;;;;5030652;28;20043;-80
2022/09/12 02:20:47;;;;;;;26.48;16.63;;;12.40;99.90;;;;;;5032669;28;20033;-80
2022/09/12 02:23:19;;;;;;;27.88;17.33;;;12.40;99.90;;;;;;5032952;28;20089;-79
2022/09/12 02:25:48;;;;;;;28.90;16.83;;;12.30;99.90;;;;;;5031657;28;20025;-81
2022/09/12 02:28:20;;;;;;;29.45;18.13;;;12.40;99.90;;;;;;5018834;28;20030;-80
2022/09/12 02:31:04;;;;;;;31.25;17.60;;;12.50;99.90;;;;;;5025532;28;20017;-79
2022/09/12 02:33:59;;;;;;;30.13;18.10;;;12.50;99.90;;;;;;5019043;28;20058;-79
2022/09/12 02:36:35;;;;;;;27.90;17.10;;;12.40;99.90;;;;;;5028240;28;20555;-80
2022/09/12 02:39:01;;;;;;;33.65;18.45;;;12.40;99.90;;;;;;5018297;28;20034;-80
2022/09/12 02:41:27;;;;;;;31.38;17.58;;;12.50;99.90;;;;;;5030333;28;20077;-80
2022/09/12 02:43:53;;;;;;;29.55;17.70;;;12.50;99.90;;;;;;5019269;28;20041;-80
2022/09/12 02:46:25;;;;;;;32.95;17.95;;;12.40;99.90;;;;;;5020931;28;20011;-80
2022/09/12 02:48:51;;;;;;;31.83;18.25;;;12.40;99.90;;;;;;5026460;28;20109;-80
2022/09/12 02:51:17;;;;;;;29.92;18.23;;;12.50;99.90;;;;;;5022148;28;20007;-80
2022/09/12 02:53:43;;;;;;;28.75;18.10;;;12.40;99.90;;;;;;5026272;28;20097;-81
2022/09/12 02:56:16;;;;;;;28.73;17.20;;;12.50;99.90;;;;;;5025582;28;20034;-80
2022/09/12 02:58:41;;;;;;;34.17;18.60;;;12.40;99.90;;;;;;5029494;28;20018;-80
2022/09/12 03:01:07;;;;;;;34.80;18.75;;;12.50;99.90;;;;;;5028120;28;20037;-80
2022/09/12 03:04:09;;;;;;;30.55;17.30;;;12.50;99.90;;;;;;5023549;28;20040;-80
2022/09/12 03:06:58;;;;;;;31.02;17.95;;;12.40;99.90;;;;;;5023552;28;20047;-80
2022/09/12 03:09:32;;;;;;;29.88;18.55;;;12.50;99.90;;;;;;5029365;28;20050;-80
2022/09/12 03:12:17;;;;;;;34.60;18.33;;;12.50;99.90;;;;;;5028157;28;20018;-80
2022/09/12 03:15:09;;;;;;;30.50;18.40;;;12.40;99.90;;;;;;5028654;28;20072;-80
2022/09/12 03:17:59;;;;;;;34.83;18.42;;;12.50;99.90;;;;;;5021813;28;20034;-80
2022/09/12 03:20:34;;;;;;;35.95;19.35;;;12.50;99.90;;;;;;5017443;28;20023;-80
2022/09/12 03:23:17;;;;;;;37.03;19.15;;;12.70;99.90;;;;;;5030308;28;20065;-80
2022/09/12 03:25:48;;;;;;;33.28;18.45;;;12.70;99.90;;;;;;5023577;28;20036;-80
2022/09/12 03:28:16;;;;;;;34.60;18.90;;;12.60;99.90;;;;;;5021719;28;20022;-80
2022/09/12 03:30:45;;;;;;;38.67;20.98;;;12.50;99.90;;;;;;5014812;28;20460;-80
2022/09/12 03:33:12;;;;;;;44.10;21.35;;;12.70;99.90;;;;;;5030541;28;20073;-80
2022/09/12 03:35:38;;;;;;;34.05;19.10;;;12.70;99.90;;;;;;5033955;28;20045;-80
2022/09/12 03:38:06;;;;;;;39.80;20.42;;;12.70;99.90;;;;;;5034525;28;20038;-81
2022/09/12 03:40:32;;;;;;;44.10;22.00;;;12.80;99.90;;;;;;5026298;28;20015;-81
2022/09/12 03:42:58;;;;;;;49.78;23.70;;;12.80;99.90;;;;;;5029639;28;20046;-80
2022/09/12 03:45:23;;;;;;;43.17;21.15;;;13.10;99.90;;;;;;5030966;28;20022;-81
2022/09/12 03:47:49;;;;;;;49.45;22.70;;;13.10;99.90;;;;;;5026929;28;20034;-80
2022/09/12 03:50:15;;;;;;;47.30;21.90;;;13.10;99.90;;;;;;5024104;28;20055;-80
2022/09/12 03:52:40;;;;;;;44.00;22.13;;;13.20;99.90;;;;;;5030391;28;20079;-80
2022/09/12 03:55:06;;;;;;;50.22;23.23;;;13.30;99.90;;;;;;5034386;28;20025;-79
2022/09/12 03:57:32;;;;;;;43.58;21.27;;;13.20;99.90;;;;;;5032935;28;20026;-79
2022/09/12 03:59:57;;;;;;;42.83;22.20;;;13.20;99.90;;;;;;5031456;28;20045;-80
2022/09/12 04:02:23;;;;;;;42.15;21.20;;;13.20;99.90;;;;;;5020852;28;20018;-80
2022/09/12 04:04:49;;;;;;;42.70;22.00;;;13.30;99.90;;;;;;5020364;28;20019;-79
2022/09/12 04:07:15;;;;;;;41.17;21.55;;;13.40;99.90;;;;;;5017488;28;20021;-81
2022/09/12 04:09:41;;;;;;;44.50;22.55;;;13.40;99.90;;;;;;5023479;28;20088;-81
2022/09/12 04:12:06;;;;;;;45.50;22.13;;;13.40;99.90;;;;;;5017570;28;20030;-81
2022/09/12 04:14:32;;;;;;;38.80;21.77;;;13.50;99.90;;;;;;5025160;28;20082;-81
2022/09/12 04:16:58;;;;;;;43.58;22.05;;;13.40;99.90;;;;;;5027111;28;20060;-80
2022/09/12 04:19:25;;;;;;;44.88;22.90;;;13.50;99.90;;;;;;5030810;28;20033;-80
2022/09/12 04:21:51;;;;;;;45.63;23.60;;;13.50;99.90;;;;;;5015975;28;20465;-81
2022/09/12 04:24:16;;;;;;;49.30;24.40;;;13.50;99.90;;;;;;5012443;28;20105;-81
2022/09/12 04:26:42;;;;;;;50.83;24.25;;;13.60;99.90;;;;;;5014936;28;20033;-81
2022/09/12 04:29:11;;;;;;;47.35;24.48;;;13.70;99.90;;;;;;5013566;28;20021;-81
2022/09/12 04:31:36;;;;;;;45.28;23.30;;;13.70;99.90;;;;;;5013505;28;20022;-80
2022/09/12 04:34:04;;;;;;;48.10;24.73;;;13.70;99.90;;;;;;5013388;28;20072;-80
2022/09/12 04:36:30;;;;;;;49.22;24.23;;;13.70;99.90;;;;;;5014300;28;20022;-81
2022/09/12 04:38:55;;;;;;;50.65;25.02;;;13.70;99.90;;;;;;5020455;28;20018;-80
2022/09/12 04:41:23;;;;;;;49.00;25.05;;;13.80;99.90;;;;;;5019676;28;20080;-81
2022/09/12 04:44:02;;;;;;;50.20;24.98;;;13.90;99.90;;;;;;5022563;28;20026;-80
2022/09/12 04:46:30;;;;;;;51.00;24.80;;;13.80;99.90;;;;;;5017267;28;20105;-80
2022/09/12 04:48:55;;;;;;;46.97;23.65;;;13.90;99.90;;;;;;5009089;28;20018;-80
2022/09/12 04:51:27;;;;;;;45.83;23.50;;;13.90;99.90;;;;;;5016695;28;20465;-81
2022/09/12 04:53:56;;;;;;;52.70;24.73;;;13.90;99.90;;;;;;5020877;28;20411;-80
2022/09/12 04:56:22;;;;;;;44.85;24.02;;;13.90;99.90;;;;;;5023927;28;20629;-81
2022/09/12 04:58:48;;;;;;;48.25;24.63;;;14.00;99.90;;;;;;5029971;28;20025;-80
2022/09/12 05:01:16;;;;;;;49.33;24.10;;;14.00;99.90;;;;;;5022094;28;20018;-80
2022/09/12 05:03:43;;;;;;;51.53;24.33;;;14.00;99.90;;;;;;5020224;28;20030;-81
2022/09/12 05:06:11;;;;;;;46.28;25.02;;;14.00;96.30;;;;;;5005718;28;20118;-80
2022/09/12 05:08:37;;;;;;;44.53;24.50;;;14.00;99.90;;;;;;5006545;28;20408;-80
2022/09/12 05:11:05;;;;;;;45.53;24.15;;;14.10;85.40;;;;;;5016257;28;20492;-80
2022/09/12 05:13:32;;;;;;;44.70;24.02;;;14.10;60.10;;;;;;5010261;28;20064;-81
2022/09/12 05:16:00;;;;;;;41.80;23.00;;;14.10;66.00;;;;;;5019184;28;20018;-80
2022/09/12 05:18:26;;;;;;;38.30;22.60;;;14.00;1.00;;;;;;5019506;28;20026;-81
2022/09/12 05:20:53;;;;;;;42.38;22.92;;;14.00;1.00;;;;;;5025863;28;20068;-80
2022/09/12 05:23:19;;;;;;;36.05;21.73;;;14.00;1.00;;;;;;5013342;28;20056;-81
2022/09/12 05:25:52;;;;;;;37.83;22.52;;;13.90;1.00;;;;;;5006526;28;20030;-81
2022/09/12 05:28:18;;;;;;;40.42;22.65;;;14.00;1.00;;;;;;5017660;28;20025;-80
2022/09/12 05:30:44;;;;;;;36.78;21.10;;;14.00;1.00;;;;;;5017239;28;20105;-81
2022/09/12 05:33:10;;;;;;;38.63;22.38;;;14.00;1.00;;;;;;5017910;28;20135;-81
2022/09/12 05:35:39;;;;;;;36.30;21.73;;;14.00;1.00;;;;;;5020640;28;20026;-81
2022/09/12 05:38:06;;;;;;;34.75;20.70;;;14.10;1.00;;;;;;5007498;28;20031;-81
2022/09/12 05:40:33;;;;;;;37.55;20.77;;;14.10;1.00;;;;;;5015684;28;20033;-81
2022/09/12 05:42:59;;;;;;;38.17;21.20;;;14.00;1.00;;;;;;5024166;28;20085;-81
2022/09/12 05:45:25;;;;;;;34.28;20.90;;;14.20;1.00;;;;;;5019699;28;20029;-81
2022/09/12 05:47:52;;;;;;;37.58;20.63;;;14.20;1.00;;;;;;5001689;28;20022;-81
2022/09/12 05:50:18;;;;;;;32.45;20.60;;;14.30;1.00;;;;;;5013110;28;20038;-81
2022/09/12 05:52:44;;;;;;;32.42;20.02;;;14.40;99.90;;;;;;5020013;28;20029;-81
2022/09/12 05:55:10;;;;;;;31.92;20.70;;;14.40;99.90;;;;;;5004372;28;20061;-81
2022/09/12 05:57:35;;;;;;;34.20;19.45;;;14.40;99.90;;;;;;5006451;28;20025;-81
2022/09/12 06:00:03;;;;;;;37.25;20.40;;;14.50;99.90;;;;;;5008378;28;20597;-81
2022/09/12 06:02:28;;;;;;;33.72;19.83;;;14.50;99.90;;;;;;5000593;28;20286;-80
2022/09/12 06:04:54;;;;;;;36.50;19.77;;;14.50;99.90;;;;;;4997219;28;20019;-80
2022/09/12 06:07:19;;;;;;;31.60;19.25;;;14.60;99.90;;;;;;4997594;28;20022;-81
2022/09/12 06:09:45;;;;;;;30.50;19.60;;;14.70;99.90;;;;;;5010262;28;20113;-81
2022/09/12 06:12:10;;;;;;;36.92;20.30;;;14.70;99.90;;;;;;5030048;28;20026;-80
2022/09/12 06:14:36;;;;;;;32.85;20.42;;;14.70;99.90;;;;;;5017737;28;20064;-81
2022/09/12 06:17:01;;;;;;;31.90;19.67;;;14.80;99.90;;;;;;5010877;28;20041;-81
2022/09/12 06:19:27;;;;;;;30.23;20.13;;;14.80;99.90;;;;;;5012787;28;20077;-81
2022/09/12 06:21:53;;;;;;;32.17;19.15;;;15.00;99.90;;;;;;5000121;28;20026;-81
2022/09/12 06:24:19;;;;;;;30.17;19.10;;;15.00;99.90;;;;;;5017534;28;20408;-81
2022/09/12 06:26:46;;;;;;;32.45;20.30;;;15.10;99.90;;;;;;5017755;28;20033;-81
2022/09/12 06:29:12;;;;;;;30.90;19.95;;;15.20;99.90;;;;;;4997414;28;20022;-81
2022/09/12 06:31:40;;;;;;;30.65;19.90;;;15.30;99.90;;;;;;4997399;28;20054;-81
2022/09/12 06:34:10;;;;;;;30.77;19.45;;;15.40;99.90;;;;;;5014740;28;20140;-81
2022/09/12 06:36:38;;;;;;;31.33;19.83;;;15.40;99.90;;;;;;5015397;28;20049;-81
2022/09/12 06:39:10;;;;;;;29.25;18.95;;;15.40;99.90;;;;;;5019092;28;20026;-81
2022/09/12 06:41:36;;;;;;;31.38;19.30;;;15.50;99.90;;;;;;5003515;28;20023;-82
2022/09/12 06:44:02;;;;;;;32.95;19.85;;;15.60;99.90;;;;;;5000603;28;20018;-80
2022/09/12 06:46:28;;;;;;;31.75;20.67;;;15.60;99.90;;;;;;5004779;28;20025;-82
2022/09/12 06:48:59;;;;;;;28.92;19.30;;;15.70;99.90;;;;;;5013567;28;20026;-81
2022/09/12 06:51:27;;;;;;;26.55;18.15;;;15.70;99.90;;;;;;5005280;28;20096;-81
2022/09/12 06:53:55;;;;;;;30.63;19.27;;;15.80;99.90;;;;;;5014658;28;20037;-81
2022/09/12 06:56:25;;;;;;;30.42;18.92;;;15.90;99.90;;;;;;5021950;28;20026;-80
2022/09/12 06:58:52;;;;;;;28.23;18.60;;;16.00;99.90;;;;;;5007785;28;20039;-80
2022/09/12 07:01:21;;;;;;;28.33;19.23;;;15.90;99.90;;;;;;5015769;28;20117;-82
2022/09/12 07:03:49;;;;;;;26.25;17.63;;;16.20;99.90;;;;;;5028646;28;20032;-80
2022/09/12 07:06:17;;;;;;;27.48;17.33;;;16.20;99.90;;;;;;5018243;28;20018;-81
2022/09/12 07:08:43;;;;;;;23.63;17.38;;;16.30;99.90;;;;;;5020386;28;20431;-80
2022/09/12 07:11:13;;;;;;;27.05;18.20;;;16.30;99.90;;;;;;5017781;28;20042;-81
2022/09/12 07:13:40;;;;;;;25.88;17.67;;;16.50;99.90;;;;;;5032333;28;20063;-81
2022/09/12 07:16:06;;;;;;;25.55;17.15;;;16.70;99.90;;;;;;5025442;28;20161;-81
2022/09/12 07:18:37;;;;;;;26.23;17.48;;;17.00;99.90;;;;;;5006506;28;20030;-81
2022/09/12 07:21:05;;;;;;;25.10;16.90;;;17.40;99.90;;;;;;5014482;28;20030;-81
2022/09/12 07:23:30;;;;;;;27.13;16.88;;;17.90;99.90;;;;;;5031288;28;20381;-80
2022/09/12 07:25:58;;;;;;;24.77;16.38;;;18.20;99.90;;;;;;5017463;28;20080;-80
2022/09/12 07:28:25;;;;;;;24.35;17.25;;;18.50;99.90;;;;;;5028767;28;20049;-81
2022/09/12 07:30:52;;;;;;;25.05;17.40;;;18.90;99.90;;;;;;5018072;28;20030;-81
2022/09/12 07:33:23;;;;;;;26.92;17.45;;;19.00;99.90;;;;;;5024073;28;20050;-81
2022/09/12 07:35:49;;;;;;;23.33;16.45;;;18.90;99.90;;;;;;5007393;28;20026;-80
2022/09/12 07:38:15;;;;;;;24.38;16.58;;;19.30;99.90;;;;;;5018231;28;20024;-81
2022/09/12 07:40:41;;;;;;;23.95;16.65;;;19.70;99.90;;;;;;5008941;28;20473;-81
2022/09/12 07:43:07;;;;;;;24.00;16.63;;;20.10;99.90;;;;;;4998680;28;20491;-81
2022/09/12 07:45:33;;;;;;;23.63;17.00;;;21.00;99.90;;;;;;5003391;28;20026;-81
2022/09/12 07:47:59;;;;;;;26.77;17.10;;;21.10;99.90;;;;;;5017143;28;20487;-80
2022/09/12 07:50:24;;;;;;;24.95;17.23;;;21.00;99.90;;;;;;5017315;28;20045;-81
2022/09/12 07:52:53;;;;;;;24.70;17.23;;;21.30;99.90;;;;;;5018307;28;20022;-81
2022/09/12 07:55:19;;;;;;;23.60;17.77;;;21.60;99.90;;;;;;5013032;28;20038;-81
2022/09/12 07:57:48;;;;;;;27.88;18.33;;;22.10;99.90;;;;;;5012761;28;20460;-81
2022/09/12 08:00:14;;;;;;;25.17;17.43;;;21.90;99.90;;;;;;5005224;28;20030;-81
2022/09/12 08:02:40;;;;;;;24.55;17.15;;;21.70;99.90;;;;;;5003152;28;20106;-81
2022/09/12 08:05:06;;;;;;;24.85;17.13;;;21.50;99.90;;;;;;5010723;28;20057;-82
2022/09/12 08:07:32;;;;;;;25.58;18.10;;;21.60;99.90;;;;;;5012376;28;20022;-81
2022/09/12 08:09:59;;;;;;;23.55;17.48;;;21.70;99.90;;;;;;5010503;28;20058;-79
2022/09/12 08:12:26;;;;;;;27.90;18.65;;;21.50;99.90;;;;;;5012716;28;20021;-79
2022/09/12 08:14:52;;;;;;;29.38;18.90;;;21.80;99.90;;;;;;5017972;28;20018;-79
2022/09/12 08:17:18;;;;;;;28.52;18.80;;;22.90;99.90;;;;;;5015035;28;20540;-80
2022/09/12 08:19:43;;;;;;;25.85;17.77;;;23.10;99.90;;;;;;5025587;28;20037;-79
2022/09/12 08:22:10;;;;;;;26.30;18.17;;;23.20;99.90;;;;;;5016310;28;20064;-80
2022/09/12 08:24:36;;;;;;;26.52;18.77;;;23.40;99.90;;;;;;5017331;28;20163;-80
2022/09/12 08:27:01;;;;;;;26.38;18.88;;;23.20;99.30;;;;;;5010700;28;20026;-79
2022/09/12 08:29:27;;;;;;;26.80;19.15;;;23.10;98.80;;;;;;5023649;28;20034;-78
2022/09/12 08:31:53;;;;;;;26.65;18.65;;;22.90;99.00;;;;;;5017861;28;20018;-79
2022/09/12 08:34:21;;;;;;;27.20;18.77;;;23.80;95.80;;;;;;5021399;28;20043;-79
2022/09/12 08:36:46;;;;;;;27.65;18.27;;;25.50;83.10;;;;;;5014075;28;20013;-78
2022/09/12 08:39:13;;;;;;;26.70;18.02;;;25.90;70.20;;;;;;5025523;28;20373;-79
2022/09/12 08:41:43;;;;;;;26.00;18.15;;;27.10;56.70;;;;;;5016069;28;20641;-79
2022/09/12 08:44:20;;;;;;;27.65;18.77;;;26.30;47.90;;;;;;5024090;28;20026;-79
2022/09/12 08:47:03;;;;;;;23.92;17.10;;;25.80;46.30;;;;;;5036001;28;20014;-79
2022/09/12 08:50:00;;;;;;;25.55;17.60;;;25.40;45.40;;;;;;5037958;28;20056;-79
2022/09/12 08:52:34;;;;;;;24.88;17.50;;;25.00;43.20;;;;;;5039672;28;20032;-79
2022/09/12 08:55:01;;;;;;;24.40;17.52;;;25.90;42.30;;;;;;5023091;28;20033;-80
2022/09/12 08:57:27;;;;;;;25.20;18.02;;;26.40;36.90;;;;;;5014214;28;20669;-80
2022/09/12 08:59:53;;;;;;;26.45;18.05;;;29.30;23.60;;;;;;5008925;28;20917;-79
2022/09/12 09:02:27;;;;;;;23.85;17.27;;;29.70;14.60;;;;;;5026059;28;20060;-79
2022/09/12 09:05:21;;;;;;;24.02;16.80;;;29.10;10.00;;;;;;5030801;28;20022;-78
2022/09/12 09:08:04;;;;;;;24.45;16.83;;;29.10;5.50;;;;;;5007349;28;20026;-80
2022/09/12 09:10:47;;;;;;;21.08;15.60;;;31.00;1.00;;;;;;5022230;28;20034;-79
2022/09/12 09:16:25;;;;;;;;;;;33.70;1.00;;;;;;5009851;28;20042;-79
2022/09/12 09:18:52;;;;;;;23.77;16.08;;;33.50;1.00;;;;;;5014627;28;19944;-80
2022/09/12 09:21:23;;;;;;;25.75;18.02;;;36.40;1.00;;;;;;5016056;28;20027;-80
2022/09/12 09:24:03;;;;;;;23.40;17.67;;;39.30;1.00;;;;;;5015451;28;20015;-79
2022/09/12 09:26:48;;;;;;;22.65;17.00;;;40.20;1.00;;;;;;5025288;28;20041;-80
2022/09/12 09:29:18;;;;;;;25.13;14.63;;;41.10;1.00;;;;;;5004895;28;20030;-80
2022/09/12 09:31:47;;;;;;;;;;;39.40;1.00;;;;;;5009339;28;20045;-80
2022/09/12 09:34:19;;;;;;;22.48;16.48;;;41.10;1.00;;;;;;5013344;28;19924;-79
2022/09/12 09:36:49;;;;;;;20.55;15.13;;;38.40;1.00;;;;;;5009021;28;20049;-80
2022/09/12 09:39:35;;;;;;;18.17;13.57;;;38.00;1.00;;;;;;5021505;28;20033;-80
2022/09/12 09:42:23;;;;;;;17.20;13.15;;;39.30;1.00;;;;;;5016965;28;20025;-80
2022/09/12 09:44:52;;;;;;;15.52;12.60;;;36.40;1.00;;;;;;5010176;28;20053;-80
2022/09/12 09:47:18;;;;;;;;;;;37.60;1.00;;;;;;5020322;28;20086;-80
2022/09/12 09:49:45;;;;;;;16.15;11.95;;;38.40;1.00;;;;;;5010568;28;21477;-80
2022/09/12 09:52:15;;;;;;;13.48;10.98;;;38.40;1.00;;;;;;5016538;28;20030;-80
2022/09/12 09:54:56;;;;;;;12.75;10.40;;;38.20;1.00;;;;;;5021047;28;20033;-80
2022/09/12 09:57:34;;;;;;;13.85;10.57;;;40.10;1.00;;;;;;5023982;28;20018;-80
2022/09/12 10:00:25;;;;;;;14.35;11.02;;;39.10;1.00;;;;;;5008344;28;20021;-80
2022/09/12 10:03:22;;;;;;;10.77;9.55;;;38.80;1.00;;;;;;5027938;28;20037;-80
2022/09/12 10:05:53;;;;;;;10.98;9.68;;;39.40;1.00;;;;;;5017098;28;20056;-80
2022/09/12 10:08:28;;;;;;;9.75;7.80;;;41.50;1.00;;;;;;5024856;28;20615;-80
2022/09/12 10:10:56;;;;;;;10.50;7.78;;;41.30;1.00;;;;;;5029686;28;20022;-80
2022/09/12 10:13:53;;;;;;;13.15;7.72;;;41.30;1.00;;;;;;5012987;28;20030;-80
2022/09/12 10:16:29;;;;;;;9.25;8.25;;;41.50;1.00;;;;;;5033349;28;20029;-80
2022/09/12 10:18:57;;;;;;;10.18;9.00;;;41.40;1.00;;;;;;5039871;28;20025;-80
2022/09/12 10:21:30;;;;;;;12.70;10.02;;;41.10;1.00;;;;;;5024098;28;20034;-80
2022/09/12 10:24:02;;;;;;;13.85;9.90;;;40.50;1.00;;;;;;5007064;28;20495;-80
2022/09/12 10:26:33;;;;;;;13.13;10.85;;;41.10;1.00;;;;;;5022760;28;20081;-80
2022/09/12 10:29:12;;;;;;;12.07;10.20;;;39.80;1.00;;;;;;5012372;28;20057;-80
2022/09/12 10:31:51;;;;;;;11.27;10.00;;;39.80;1.00;;;;;;5007169;28;20408;-80
2022/09/12 10:34:26;;;;;;;14.23;10.70;;;39.50;1.00;;;;;;5015281;28;20033;-80
2022/09/12 10:36:59;;;;;;;13.10;10.98;;;40.10;1.00;;;;;;5022591;28;20030;-80
2022/09/12 10:39:25;;;;;;;15.40;11.75;;;39.50;1.00;;;;;;5023508;28;20527;-80
2022/09/12 10:41:50;;;;;;;12.75;10.55;;;37.40;1.00;;;;;;5014028;28;20021;-80
2022/09/12 10:44:26;;;;;;;13.60;11.45;;;34.70;1.00;;;;;;5028289;28;20017;-80
2022/09/12 10:46:53;;;;;;;12.32;10.63;;;33.10;1.00;;;;;;5023417;28;20468;-80
2022/09/12 10:49:22;;;;;;;14.13;10.77;;;31.60;1.00;;;;;;5006874;28;20013;-80
2022/09/12 10:51:48;;;;;;;11.68;9.63;;;31.00;1.00;;;;;;5019672;28;20075;-80
2022/09/12 10:54:18;;;;;;;12.18;9.95;;;31.30;1.00;;;;;;5018208;28;20030;-80
2022/09/12 10:57:00;;;;;;;13.35;11.40;;;31.60;1.00;;;;;;5015832;28;20034;-80
2022/09/12 10:59:47;;;;;;;15.13;9.85;;;31.10;1.00;;;;;;5016151;28;20053;-80
2022/09/12 11:02:24;;;;;;;10.73;8.48;;;29.80;1.00;;;;;;5006797;28;20025;-80
2022/09/12 11:05:14;;;;;;;9.45;7.50;;;29.50;1.00;;;;;;5015112;28;20022;-80
2022/09/12 11:07:50;;;;;;;10.73;8.20;;;29.60;1.00;;;;;;5015009;28;20033;-80
2022/09/12 11:10:47;;;;;;;11.30;9.10;;;29.30;1.00;;;;;;5014888;28;20030;-81
2022/09/12 11:13:34;;;;;;;13.57;9.27;;;28.80;1.00;;;;;;4992304;28;20033;-79
2022/09/12 11:16:14;;;;;;;11.10;8.38;;;29.00;1.00;;;;;;5019186;28;20030;-80
2022/09/12 11:19:02;;;;;;;12.52;8.93;;;29.10;1.00;;;;;;5017283;28;20061;-78
2022/09/12 11:21:37;;;;;;;11.30;8.97;;;28.90;1.00;;;;;;5021209;28;20032;-79
2022/09/12 11:24:27;;;;;;;13.35;8.88;;;29.60;1.00;;;;;;5013335;28;20299;-77
2022/09/12 11:27:14;;;;;;;14.07;10.68;;;29.00;1.00;;;;;;5023596;28;20021;-77
2022/09/12 11:29:58;;;;;;;12.50;10.20;;;29.40;1.00;;;;;;5015959;28;20034;-77
2022/09/12 11:33:04;;;;;;;12.00;10.15;;;29.60;1.00;;;;;;5019720;28;20536;-77
2022/09/12 11:35:36;;;;;;;11.38;9.30;;;29.60;1.00;;;;;;5024976;28;20026;-78
2022/09/12 11:38:05;;;;;;;11.43;8.45;;;29.40;1.00;;;;;;5025196;28;20033;-79
2022/09/12 11:40:54;;;;;;;11.65;9.35;;;29.40;1.00;;;;;;5024005;28;20022;-78
2022/09/12 11:43:39;;;;;;;;;;;29.10;1.00;;;;;;5026404;28;20034;-79
2022/09/12 11:46:13;;;;;;;14.60;9.57;;;28.60;1.00;;;;;;5023431;28;19914;-77
2022/09/12 11:48:43;;;;;;;12.43;10.23;;;29.10;1.00;;;;;;5019254;28;20030;-80
2022/09/12 11:51:22;;;;;;;10.85;8.85;;;28.90;1.00;;;;;;5032935;28;20037;-78
2022/09/12 11:54:02;;;;;;;10.00;8.32;;;29.30;1.00;;;;;;5036183;28;20031;-77
2022/09/12 11:56:28;;;;;;;9.75;8.00;;;29.90;1.00;;;;;;5033178;28;20022;-77
2022/09/12 11:59:02;;;;;;;8.77;7.25;;;29.90;1.00;;;;;;5022028;28;20420;-78
2022/09/12 12:01:38;;;;;;;9.02;8.13;;;30.30;1.00;;;;;;5017947;28;20018;-78
2022/09/12 12:04:10;;;;;;;9.98;8.25;;;30.20;1.00;;;;;;5014623;28;20034;-78
2022/09/12 12:06:55;;;;;;;8.63;7.32;;;29.50;1.00;;;;;;5013010;28;20058;-77
2022/09/12 12:09:21;;;;;;;11.00;7.90;;;28.90;1.00;;;;;;5022350;28;20033;-79
2022/09/12 12:11:56;;;;;;;8.02;7.10;;;29.10;1.00;;;;;;5016475;28;20027;-77
2022/09/12 12:14:42;;;;;;;8.20;7.13;;;29.20;1.00;;;;;;5023771;28;20071;-79
2022/09/12 12:17:23;;;;;;;10.50;7.35;;;29.30;1.00;;;;;;5024047;28;20017;-78
2022/09/12 12:20:01;;;;;;;9.15;7.10;;;29.00;1.00;;;;;;5010566;28;20033;-77
2022/09/12 12:22:27;;;;;;;9.43;7.55;;;28.70;1.00;;;;;;5014206;28;20072;-78
2022/09/12 12:25:12;;;;;;;10.55;8.00;;;28.10;1.00;;;;;;5008495;28;20030;-76
2022/09/12 12:27:53;;;;;;;10.73;8.68;;;28.10;1.00;;;;;;5010028;28;20034;-77
2022/09/12 12:30:28;;;;;;;8.82;7.32;;;27.80;1.00;;;;;;5018442;28;20030;-77
2022/09/12 12:33:00;;;;;;;7.70;6.45;;;27.60;1.00;;;;;;5023153;28;20375;-78
2022/09/12 12:35:37;;;;;;;7.85;7.05;;;27.70;1.00;;;;;;5005663;28;20385;-78
2022/09/12 12:38:04;;;;;;;7.03;6.32;;;27.60;1.00;;;;;;5016489;28;20026;-77
2022/09/12 12:40:30;;;;;;;7.97;6.75;;;27.70;1.00;;;;;;5003776;28;20045;-77
2022/09/12 12:43:01;;;;;;;8.90;7.22;;;27.50;1.00;;;;;;5007456;28;20742;-77
2022/09/12 12:45:27;;;;;;;9.38;7.57;;;27.50;1.00;;;;;;5035466;28;20042;-78
2022/09/12 12:47:58;;;;;;;8.85;7.15;;;27.90;1.00;;;;;;5015783;28;20041;-77
2022/09/12 12:50:29;;;;;;;9.63;6.45;;;27.30;1.00;;;;;;5031706;28;20030;-76
2022/09/12 12:53:04;;;;;;;8.20;6.40;;;27.60;1.00;;;;;;5027852;28;20018;-78
2022/09/12 12:55:32;;;;;;;6.75;5.65;;;27.40;1.00;;;;;;5011718;28;20019;-76
2022/09/12 12:58:00;;;;;;;6.93;5.68;;;27.20;1.00;;;;;;5005221;28;20027;-78
2022/09/12 13:00:33;;;;;;;9.40;6.05;;;27.10;1.00;;;;;;5016306;28;20026;-77